sensor_id;sensor_type;location;lat;lon;timestamp;P1;durP1;ratioP1;P2;durP2;ratioP2
30571;SDS011;17348;50.948;10.696;2023-11-21T00:02:47;11.00;;;2.90;;
30571;SDS011;17348;50.948;10.696;2023-11-21T00:05:49;8.37;;;3.40;;
30571;SDS011;17348;50.948;10.696;2023-11-21T00:08:53;9.20;;;4.07;;
30571;SDS011;17348;50.948;10.696;2023-11-21T00:11:56;10.53;;;3.97;;
30571;SDS011;17348;50.948;10.696;2023-11-21T00:14:59;11.00;;;3.93;;
30571;SDS011;17348;50.948;10.696;2023-11-21T00:18:02;11.30;;;3.33;;
30571;SDS011;17348;50.948;10.696;2023-11-21T00:21:05;6.43;;;3.70;;
30571;SDS011;17348;50.948;10.696;2023-11-21T00:24:09;9.10;;;3.90;;
30571;SDS011;17348;50.948;10.696;2023-11-21T00:27:16;8.77;;;2.80;;
30571;SDS011;17348;50.948;10.696;2023-11-21T00:30:18;7.53;;;2.90;;
30571;SDS011;17348;50.948;10.696;2023-11-21T00:33:22;6.03;;;2.50;;
30571;SDS011;17348;50.948;10.696;2023-11-21T00:36:25;7.40;;;2.23;;
30571;SDS011;17348;50.948;10.696;2023-11-21T00:39:28;7.87;;;3.03;;
30571;SDS011;17348;50.948;10.696;2023-11-21T00:42:32;8.83;;;2.93;;
30571;SDS011;17348;50.948;10.696;2023-11-21T00:45:35;7.63;;;2.73;;
30571;SDS011;17348;50.948;10.696;2023-11-21T00:48:37;4.97;;;2.50;;
30571;SDS011;17348;50.948;10.696;2023-11-21T00:51:40;7.50;;;2.90;;
30571;SDS011;17348;50.948;10.696;2023-11-21T00:54:42;4.43;;;2.53;;
30571;SDS011;17348;50.948;10.696;2023-11-21T00:57:46;5.57;;;2.40;;
30571;SDS011;17348;50.948;10.696;2023-11-21T01:00:51;6.30;;;3.10;;
30571;SDS011;17348;50.948;10.696;2023-11-21T01:03:53;4.47;;;2.30;;
30571;SDS011;17348;50.948;10.696;2023-11-21T01:06:55;6.30;;;2.43;;
30571;SDS011;17348;50.948;10.696;2023-11-21T01:09:58;4.63;;;2.70;;
30571;SDS011;17348;50.948;10.696;2023-11-21T01:13:02;8.00;;;3.00;;
30571;SDS011;17348;50.948;10.696;2023-11-21T01:16:06;6.50;;;2.23;;
30571;SDS011;17348;50.948;10.696;2023-11-21T01:19:09;5.47;;;2.80;;
30571;SDS011;17348;50.948;10.696;2023-11-21T01:22:11;4.53;;;2.40;;
30571;SDS011;17348;50.948;10.696;2023-11-21T01:25:13;4.10;;;2.10;;
30571;SDS011;17348;50.948;10.696;2023-11-21T01:28:18;5.33;;;2.13;;
30571;SDS011;17348;50.948;10.696;2023-11-21T01:31:20;4.60;;;2.43;;
30571;SDS011;17348;50.948;10.696;2023-11-21T01:34:23;5.97;;;2.57;;
30571;SDS011;17348;50.948;10.696;2023-11-21T01:37:25;5.40;;;3.13;;
30571;SDS011;17348;50.948;10.696;2023-11-21T01:40:28;6.10;;;2.93;;
30571;SDS011;17348;50.948;10.696;2023-11-21T01:43:32;8.23;;;2.53;;
30571;SDS011;17348;50.948;10.696;2023-11-21T01:46:34;8.43;;;2.93;;
30571;SDS011;17348;50.948;10.696;2023-11-21T01:49:38;6.17;;;2.90;;
30571;SDS011;17348;50.948;10.696;2023-11-21T01:52:40;9.53;;;3.53;;
30571;SDS011;17348;50.948;10.696;2023-11-21T01:55:44;6.87;;;3.67;;
30571;SDS011;17348;50.948;10.696;2023-11-21T01:58:49;8.83;;;2.90;;
30571;SDS011;17348;50.948;10.696;2023-11-21T02:01:51;3.93;;;2.77;;
30571;SDS011;17348;50.948;10.696;2023-11-21T02:04:56;5.87;;;3.27;;
30571;SDS011;17348;50.948;10.696;2023-11-21T02:07:59;8.00;;;2.77;;
30571;SDS011;17348;50.948;10.696;2023-11-21T02:11:01;4.50;;;2.47;;
30571;SDS011;17348;50.948;10.696;2023-11-21T02:14:05;4.63;;;2.83;;
30571;SDS011;17348;50.948;10.696;2023-11-21T02:17:09;7.53;;;2.60;;
30571;SDS011;17348;50.948;10.696;2023-11-21T02:20:13;4.17;;;2.80;;
30571;SDS011;17348;50.948;10.696;2023-11-21T02:23:17;6.87;;;3.20;;
30571;SDS011;17348;50.948;10.696;2023-11-21T02:26:19;6.07;;;3.60;;
30571;SDS011;17348;50.948;10.696;2023-11-21T02:29:22;7.50;;;3.03;;
30571;SDS011;17348;50.948;10.696;2023-11-21T02:32:28;5.43;;;2.50;;
30571;SDS011;17348;50.948;10.696;2023-11-21T02:35:32;6.00;;;3.10;;
30571;SDS011;17348;50.948;10.696;2023-11-21T02:38:36;5.27;;;2.90;;
30571;SDS011;17348;50.948;10.696;2023-11-21T02:41:39;8.20;;;2.87;;
30571;SDS011;17348;50.948;10.696;2023-11-21T02:44:41;9.17;;;2.97;;
30571;SDS011;17348;50.948;10.696;2023-11-21T02:47:43;5.57;;;3.00;;
30571;SDS011;17348;50.948;10.696;2023-11-21T02:50:46;9.57;;;2.83;;
30571;SDS011;17348;50.948;10.696;2023-11-21T02:53:50;6.47;;;2.83;;
30571;SDS011;17348;50.948;10.696;2023-11-21T02:56:52;7.10;;;2.60;;
30571;SDS011;17348;50.948;10.696;2023-11-21T02:59:55;7.80;;;3.07;;
30571;SDS011;17348;50.948;10.696;2023-11-21T03:02:57;7.30;;;3.27;;
30571;SDS011;17348;50.948;10.696;2023-11-21T03:06:01;6.00;;;2.87;;
30571;SDS011;17348;50.948;10.696;2023-11-21T03:09:04;7.67;;;2.80;;
30571;SDS011;17348;50.948;10.696;2023-11-21T03:12:07;3.50;;;2.10;;
30571;SDS011;17348;50.948;10.696;2023-11-21T03:15:12;6.47;;;2.27;;
30571;SDS011;17348;50.948;10.696;2023-11-21T03:18:15;8.90;;;2.27;;
30571;SDS011;17348;50.948;10.696;2023-11-21T03:21:17;5.47;;;2.13;;
30571;SDS011;17348;50.948;10.696;2023-11-21T03:24:21;5.33;;;2.33;;
30571;SDS011;17348;50.948;10.696;2023-11-21T03:27:24;3.60;;;2.00;;
30571;SDS011;17348;50.948;10.696;2023-11-21T03:30:27;4.40;;;2.07;;
30571;SDS011;17348;50.948;10.696;2023-11-21T03:33:29;5.93;;;2.37;;
30571;SDS011;17348;50.948;10.696;2023-11-21T03:36:31;7.63;;;2.87;;
30571;SDS011;17348;50.948;10.696;2023-11-21T03:39:35;9.70;;;2.70;;
30571;SDS011;17348;50.948;10.696;2023-11-21T03:42:38;4.63;;;2.57;;
30571;SDS011;17348;50.948;10.696;2023-11-21T03:45:40;4.40;;;2.00;;
30571;SDS011;17348;50.948;10.696;2023-11-21T03:48:42;6.37;;;2.77;;
30571;SDS011;17348;50.948;10.696;2023-11-21T03:51:44;7.23;;;2.83;;
30571;SDS011;17348;50.948;10.696;2023-11-21T03:54:48;10.70;;;2.93;;
30571;SDS011;17348;50.948;10.696;2023-11-21T03:57:50;6.53;;;2.50;;
30571;SDS011;17348;50.948;10.696;2023-11-21T04:00:53;3.97;;;2.47;;
30571;SDS011;17348;50.948;10.696;2023-11-21T04:03:55;4.30;;;1.80;;
30571;SDS011;17348;50.948;10.696;2023-11-21T04:06:58;5.83;;;3.17;;
30571;SDS011;17348;50.948;10.696;2023-11-21T04:10:02;5.57;;;2.33;;
30571;SDS011;17348;50.948;10.696;2023-11-21T04:13:04;5.63;;;3.23;;
30571;SDS011;17348;50.948;10.696;2023-11-21T04:16:07;8.53;;;3.60;;
30571;SDS011;17348;50.948;10.696;2023-11-21T04:19:10;6.53;;;3.13;;
30571;SDS011;17348;50.948;10.696;2023-11-21T04:22:15;6.37;;;3.17;;
30571;SDS011;17348;50.948;10.696;2023-11-21T04:25:19;6.33;;;3.07;;
30571;SDS011;17348;50.948;10.696;2023-11-21T04:28:22;5.90;;;2.33;;
30571;SDS011;17348;50.948;10.696;2023-11-21T04:31:25;8.63;;;3.67;;
30571;SDS011;17348;50.948;10.696;2023-11-21T04:34:27;9.87;;;3.70;;
30571;SDS011;17348;50.948;10.696;2023-11-21T04:37:31;7.37;;;3.60;;
30571;SDS011;17348;50.948;10.696;2023-11-21T04:40:35;11.43;;;3.53;;
30571;SDS011;17348;50.948;10.696;2023-11-21T04:43:37;5.83;;;3.37;;
30571;SDS011;17348;50.948;10.696;2023-11-21T04:46:39;6.27;;;3.00;;
30571;SDS011;17348;50.948;10.696;2023-11-21T04:49:42;7.80;;;3.07;;
30571;SDS011;17348;50.948;10.696;2023-11-21T04:52:44;7.10;;;3.73;;
30571;SDS011;17348;50.948;10.696;2023-11-21T04:55:48;6.80;;;3.57;;
30571;SDS011;17348;50.948;10.696;2023-11-21T04:58:50;8.00;;;3.57;;
30571;SDS011;17348;50.948;10.696;2023-11-21T05:01:53;10.97;;;3.97;;
30571;SDS011;17348;50.948;10.696;2023-11-21T05:04:55;8.03;;;3.83;;
30571;SDS011;17348;50.948;10.696;2023-11-21T05:07:57;11.23;;;4.70;;
30571;SDS011;17348;50.948;10.696;2023-11-21T05:11:01;9.53;;;4.23;;
30571;SDS011;17348;50.948;10.696;2023-11-21T05:14:04;8.10;;;4.37;;
30571;SDS011;17348;50.948;10.696;2023-11-21T05:17:07;10.40;;;4.97;;
30571;SDS011;17348;50.948;10.696;2023-11-21T05:20:09;14.03;;;5.23;;
30571;SDS011;17348;50.948;10.696;2023-11-21T05:23:13;9.87;;;4.67;;
30571;SDS011;17348;50.948;10.696;2023-11-21T05:26:17;10.47;;;4.93;;
30571;SDS011;17348;50.948;10.696;2023-11-21T05:29:19;9.33;;;4.60;;
30571;SDS011;17348;50.948;10.696;2023-11-21T05:32:22;11.50;;;4.93;;
30571;SDS011;17348;50.948;10.696;2023-11-21T05:35:24;11.67;;;4.87;;
30571;SDS011;17348;50.948;10.696;2023-11-21T05:38:27;12.50;;;5.27;;
30571;SDS011;17348;50.948;10.696;2023-11-21T05:41:31;16.27;;;4.60;;
30571;SDS011;17348;50.948;10.696;2023-11-21T05:44:33;38.87;;;4.50;;
30571;SDS011;17348;50.948;10.696;2023-11-21T05:47:36;7.90;;;3.37;;
30571;SDS011;17348;50.948;10.696;2023-11-21T05:50:41;27.13;;;3.57;;
30571;SDS011;17348;50.948;10.696;2023-11-21T05:53:43;4.70;;;3.00;;
30571;SDS011;17348;50.948;10.696;2023-11-21T05:56:46;5.57;;;2.83;;
30571;SDS011;17348;50.948;10.696;2023-11-21T05:59:49;70.33;;;8.67;;
30571;SDS011;17348;50.948;10.696;2023-11-21T06:02:52;25.63;;;2.97;;
30571;SDS011;17348;50.948;10.696;2023-11-21T06:05:54;21.53;;;3.17;;
30571;SDS011;17348;50.948;10.696;2023-11-21T06:08:57;21.73;;;3.63;;
30571;SDS011;17348;50.948;10.696;2023-11-21T06:12:00;22.73;;;3.63;;
30571;SDS011;17348;50.948;10.696;2023-11-21T06:15:04;12.83;;;3.83;;
30571;SDS011;17348;50.948;10.696;2023-11-21T06:18:09;7.87;;;3.63;;
30571;SDS011;17348;50.948;10.696;2023-11-21T06:21:11;13.17;;;4.53;;
30571;SDS011;17348;50.948;10.696;2023-11-21T06:24:14;17.57;;;5.03;;
30571;SDS011;17348;50.948;10.696;2023-11-21T06:27:18;12.13;;;5.00;;
30571;SDS011;17348;50.948;10.696;2023-11-21T06:30:21;65.77;;;5.13;;
30571;SDS011;17348;50.948;10.696;2023-11-21T06:33:24;34.43;;;3.93;;
30571;SDS011;17348;50.948;10.696;2023-11-21T06:36:28;38.20;;;4.90;;
30571;SDS011;17348;50.948;10.696;2023-11-21T06:39:30;29.10;;;4.77;;
30571;SDS011;17348;50.948;10.696;2023-11-21T06:42:34;32.27;;;4.23;;
30571;SDS011;17348;50.948;10.696;2023-11-21T06:45:38;70.57;;;5.23;;
30571;SDS011;17348;50.948;10.696;2023-11-21T06:48:42;21.10;;;3.97;;
30571;SDS011;17348;50.948;10.696;2023-11-21T06:51:44;7.47;;;3.57;;
30571;SDS011;17348;50.948;10.696;2023-11-21T06:54:47;12.87;;;4.70;;
30571;SDS011;17348;50.948;10.696;2023-11-21T06:57:51;17.47;;;4.03;;
30571;SDS011;17348;50.948;10.696;2023-11-21T07:00:54;6.97;;;3.57;;
30571;SDS011;17348;50.948;10.696;2023-11-21T07:03:56;19.70;;;3.90;;
30571;SDS011;17348;50.948;10.696;2023-11-21T07:06:58;12.07;;;4.73;;
30571;SDS011;17348;50.948;10.696;2023-11-21T07:10:00;9.40;;;4.20;;
30571;SDS011;17348;50.948;10.696;2023-11-21T07:13:05;18.20;;;4.30;;
30571;SDS011;17348;50.948;10.696;2023-11-21T07:16:07;14.23;;;4.23;;
30571;SDS011;17348;50.948;10.696;2023-11-21T07:19:10;10.63;;;4.40;;
30571;SDS011;17348;50.948;10.696;2023-11-21T07:22:13;10.17;;;4.73;;
30571;SDS011;17348;50.948;10.696;2023-11-21T07:25:16;11.63;;;4.37;;
30571;SDS011;17348;50.948;10.696;2023-11-21T07:28:20;9.03;;;4.43;;
30571;SDS011;17348;50.948;10.696;2023-11-21T07:31:22;10.57;;;5.63;;
30571;SDS011;17348;50.948;10.696;2023-11-21T07:34:25;15.00;;;7.10;;
30571;SDS011;17348;50.948;10.696;2023-11-21T07:37:27;9.50;;;4.90;;
30571;SDS011;17348;50.948;10.696;2023-11-21T07:40:30;8.40;;;5.03;;
30571;SDS011;17348;50.948;10.696;2023-11-21T07:43:33;7.17;;;4.57;;
30571;SDS011;17348;50.948;10.696;2023-11-21T07:46:36;7.20;;;3.70;;
30571;SDS011;17348;50.948;10.696;2023-11-21T07:49:39;9.00;;;3.67;;
30571;SDS011;17348;50.948;10.696;2023-11-21T07:52:43;5.97;;;3.03;;
30571;SDS011;17348;50.948;10.696;2023-11-21T07:55:45;8.57;;;4.40;;
30571;SDS011;17348;50.948;10.696;2023-11-21T07:58:50;5.83;;;2.93;;
30571;SDS011;17348;50.948;10.696;2023-11-21T08:01:52;6.73;;;3.87;;
30571;SDS011;17348;50.948;10.696;2023-11-21T08:04:54;7.10;;;3.77;;
30571;SDS011;17348;50.948;10.696;2023-11-21T08:07:57;6.93;;;3.03;;
30571;SDS011;17348;50.948;10.696;2023-11-21T08:10:59;6.40;;;2.90;;
30571;SDS011;17348;50.948;10.696;2023-11-21T08:14:03;6.17;;;3.20;;
30571;SDS011;17348;50.948;10.696;2023-11-21T08:17:05;8.73;;;2.80;;
30571;SDS011;17348;50.948;10.696;2023-11-21T08:20:11;13.43;;;4.83;;
30571;SDS011;17348;50.948;10.696;2023-11-21T08:23:16;5.97;;;2.97;;
30571;SDS011;17348;50.948;10.696;2023-11-21T08:26:19;19.50;;;4.30;;
30571;SDS011;17348;50.948;10.696;2023-11-21T08:29:22;8.47;;;3.37;;
30571;SDS011;17348;50.948;10.696;2023-11-21T08:32:25;16.17;;;3.83;;
30571;SDS011;17348;50.948;10.696;2023-11-21T08:35:27;8.63;;;3.87;;
30571;SDS011;17348;50.948;10.696;2023-11-21T08:38:29;9.50;;;4.57;;
30571;SDS011;17348;50.948;10.696;2023-11-21T08:41:31;12.80;;;4.67;;
30571;SDS011;17348;50.948;10.696;2023-11-21T08:44:35;12.13;;;4.93;;
30571;SDS011;17348;50.948;10.696;2023-11-21T08:47:39;11.87;;;4.53;;
30571;SDS011;17348;50.948;10.696;2023-11-21T08:50:41;12.53;;;5.07;;
30571;SDS011;17348;50.948;10.696;2023-11-21T08:53:44;9.47;;;4.60;;
30571;SDS011;17348;50.948;10.696;2023-11-21T08:56:46;13.03;;;5.37;;
30571;SDS011;17348;50.948;10.696;2023-11-21T08:59:51;19.33;;;4.95;;
30571;SDS011;17348;50.948;10.696;2023-11-21T09:02:56;11.93;;;5.30;;
30571;SDS011;17348;50.948;10.696;2023-11-21T09:05:58;13.57;;;5.30;;
30571;SDS011;17348;50.948;10.696;2023-11-21T09:09:00;13.10;;;5.50;;
30571;SDS011;17348;50.948;10.696;2023-11-21T09:12:05;14.33;;;5.00;;
30571;SDS011;17348;50.948;10.696;2023-11-21T09:15:10;9.87;;;5.00;;
30571;SDS011;17348;50.948;10.696;2023-11-21T09:18:12;9.00;;;5.67;;
30571;SDS011;17348;50.948;10.696;2023-11-21T09:21:15;10.40;;;5.40;;
30571;SDS011;17348;50.948;10.696;2023-11-21T09:24:18;10.53;;;5.47;;
30571;SDS011;17348;50.948;10.696;2023-11-21T09:27:20;13.10;;;6.10;;
30571;SDS011;17348;50.948;10.696;2023-11-21T09:30:24;16.83;;;7.32;;
30571;SDS011;17348;50.948;10.696;2023-11-21T09:33:26;19.03;;;6.70;;
30571;SDS011;17348;50.948;10.696;2023-11-21T09:36:31;20.63;;;6.03;;
30571;SDS011;17348;50.948;10.696;2023-11-21T09:39:34;18.98;;;5.78;;
30571;SDS011;17348;50.948;10.696;2023-11-21T09:42:36;20.25;;;6.32;;
30571;SDS011;17348;50.948;10.696;2023-11-21T09:45:44;9.52;;;5.47;;
30571;SDS011;17348;50.948;10.696;2023-11-21T09:48:49;19.60;;;4.60;;
30571;SDS011;17348;50.948;10.696;2023-11-21T09:51:53;11.48;;;5.75;;
30571;SDS011;17348;50.948;10.696;2023-11-21T09:54:57;14.07;;;5.45;;
30571;SDS011;17348;50.948;10.696;2023-11-21T09:58:01;19.35;;;5.88;;
30571;SDS011;17348;50.948;10.696;2023-11-21T10:01:07;15.32;;;6.35;;
30571;SDS011;17348;50.948;10.696;2023-11-21T10:04:09;12.65;;;5.68;;
30571;SDS011;17348;50.948;10.696;2023-11-21T10:07:13;13.68;;;5.72;;
30571;SDS011;17348;50.948;10.696;2023-11-21T10:10:19;15.10;;;5.85;;
30571;SDS011;17348;50.948;10.696;2023-11-21T10:13:24;13.15;;;5.40;;
30571;SDS011;17348;50.948;10.696;2023-11-21T10:16:32;13.98;;;6.10;;
30571;SDS011;17348;50.948;10.696;2023-11-21T10:19:35;22.60;;;5.68;;
30571;SDS011;17348;50.948;10.696;2023-11-21T10:22:39;12.23;;;5.90;;
30571;SDS011;17348;50.948;10.696;2023-11-21T10:25:42;16.08;;;5.90;;
30571;SDS011;17348;50.948;10.696;2023-11-21T10:28:54;13.63;;;5.82;;
30571;SDS011;17348;50.948;10.696;2023-11-21T10:31:59;10.93;;;5.45;;
30571;SDS011;17348;50.948;10.696;2023-11-21T10:35:01;22.00;;;5.95;;
30571;SDS011;17348;50.948;10.696;2023-11-21T10:38:07;10.82;;;4.90;;
30571;SDS011;17348;50.948;10.696;2023-11-21T10:41:11;18.08;;;5.40;;
30571;SDS011;17348;50.948;10.696;2023-11-21T10:44:16;8.93;;;5.50;;
30571;SDS011;17348;50.948;10.696;2023-11-21T10:47:22;11.02;;;5.72;;
30571;SDS011;17348;50.948;10.696;2023-11-21T10:50:24;15.15;;;5.82;;
30571;SDS011;17348;50.948;10.696;2023-11-21T10:53:28;14.05;;;5.75;;
30571;SDS011;17348;50.948;10.696;2023-11-21T10:56:31;19.20;;;5.72;;
30571;SDS011;17348;50.948;10.696;2023-11-21T10:59:36;16.20;;;5.38;;
30571;SDS011;17348;50.948;10.696;2023-11-21T11:02:40;14.10;;;5.38;;
30571;SDS011;17348;50.948;10.696;2023-11-21T11:05:44;9.25;;;4.63;;
30571;SDS011;17348;50.948;10.696;2023-11-21T11:08:51;11.30;;;5.40;;
30571;SDS011;17348;50.948;10.696;2023-11-21T11:11:55;11.05;;;5.03;;
30571;SDS011;17348;50.948;10.696;2023-11-21T11:14:57;14.30;;;6.15;;
30571;SDS011;17348;50.948;10.696;2023-11-21T11:18:02;13.75;;;5.10;;
30571;SDS011;17348;50.948;10.696;2023-11-21T11:21:07;11.32;;;5.38;;
30571;SDS011;17348;50.948;10.696;2023-11-21T11:24:41;13.55;;;4.65;;
30571;SDS011;17348;50.948;10.696;2023-11-21T11:28:01;12.32;;;5.38;;
30571;SDS011;17348;50.948;10.696;2023-11-21T11:31:10;10.45;;;5.15;;
30571;SDS011;17348;50.948;10.696;2023-11-21T11:34:20;8.75;;;4.47;;
30571;SDS011;17348;50.948;10.696;2023-11-21T11:37:28;10.20;;;4.90;;
30571;SDS011;17348;50.948;10.696;2023-11-21T11:43:54;14.95;;;5.53;;
30571;SDS011;17348;50.948;10.696;2023-11-21T11:46:57;10.10;;;5.18;;
30571;SDS011;17348;50.948;10.696;2023-11-21T11:50:01;11.13;;;5.57;;
30571;SDS011;17348;50.948;10.696;2023-11-21T11:53:14;8.82;;;4.47;;
30571;SDS011;17348;50.948;10.696;2023-11-21T11:56:25;13.73;;;4.95;;
30571;SDS011;17348;50.948;10.696;2023-11-21T11:59:29;9.73;;;4.70;;
30571;SDS011;17348;50.948;10.696;2023-11-21T12:02:31;15.80;;;5.78;;
30571;SDS011;17348;50.948;10.696;2023-11-21T12:05:35;14.65;;;5.53;;
30571;SDS011;17348;50.948;10.696;2023-11-21T12:08:40;10.35;;;4.85;;
30571;SDS011;17348;50.948;10.696;2023-11-21T12:11:45;11.63;;;4.53;;
30571;SDS011;17348;50.948;10.696;2023-11-21T12:14:47;13.15;;;4.75;;
30571;SDS011;17348;50.948;10.696;2023-11-21T12:17:50;12.07;;;4.65;;
30571;SDS011;17348;50.948;10.696;2023-11-21T12:20:54;12.07;;;4.63;;
30571;SDS011;17348;50.948;10.696;2023-11-21T12:23:57;6.80;;;3.80;;
30571;SDS011;17348;50.948;10.696;2023-11-21T12:26:59;9.85;;;4.55;;
30571;SDS011;17348;50.948;10.696;2023-11-21T12:30:02;12.50;;;5.18;;
30571;SDS011;17348;50.948;10.696;2023-11-21T12:33:05;9.77;;;4.45;;
30571;SDS011;17348;50.948;10.696;2023-11-21T12:36:10;9.75;;;4.30;;
30571;SDS011;17348;50.948;10.696;2023-11-21T12:39:13;9.23;;;4.30;;
30571;SDS011;17348;50.948;10.696;2023-11-21T12:42:15;9.23;;;4.05;;
30571;SDS011;17348;50.948;10.696;2023-11-21T12:45:20;6.60;;;3.10;;
30571;SDS011;17348;50.948;10.696;2023-11-21T12:48:23;7.65;;;2.95;;
30571;SDS011;17348;50.948;10.696;2023-11-21T12:51:27;5.35;;;3.22;;
30571;SDS011;17348;50.948;10.696;2023-11-21T12:54:30;4.65;;;3.17;;
30571;SDS011;17348;50.948;10.696;2023-11-21T12:57:33;8.07;;;3.42;;
30571;SDS011;17348;50.948;10.696;2023-11-21T13:00:39;8.13;;;3.33;;
30571;SDS011;17348;50.948;10.696;2023-11-21T13:03:42;4.53;;;2.67;;
30571;SDS011;17348;50.948;10.696;2023-11-21T13:06:47;10.57;;;3.30;;
30571;SDS011;17348;50.948;10.696;2023-11-21T13:09:51;7.40;;;2.72;;
30571;SDS011;17348;50.948;10.696;2023-11-21T13:12:55;6.32;;;3.15;;
30571;SDS011;17348;50.948;10.696;2023-11-21T13:15:59;5.78;;;2.25;;
30571;SDS011;17348;50.948;10.696;2023-11-21T13:19:04;4.88;;;2.30;;
30571;SDS011;17348;50.948;10.696;2023-11-21T13:22:10;5.57;;;2.97;;
30571;SDS011;17348;50.948;10.696;2023-11-21T13:25:13;7.93;;;3.60;;
30571;SDS011;17348;50.948;10.696;2023-11-21T13:28:15;7.78;;;3.80;;
30571;SDS011;17348;50.948;10.696;2023-11-21T13:31:19;7.25;;;4.03;;
30571;SDS011;17348;50.948;10.696;2023-11-21T13:34:27;10.48;;;4.07;;
30571;SDS011;17348;50.948;10.696;2023-11-21T13:37:31;7.65;;;3.83;;
30571;SDS011;17348;50.948;10.696;2023-11-21T13:40:33;13.37;;;5.10;;
30571;SDS011;17348;50.948;10.696;2023-11-21T13:43:43;7.03;;;2.90;;
30571;SDS011;17348;50.948;10.696;2023-11-21T13:46:51;3.20;;;1.98;;
30571;SDS011;17348;50.948;10.696;2023-11-21T13:49:53;3.03;;;1.50;;
30571;SDS011;17348;50.948;10.696;2023-11-21T13:52:57;1.77;;;0.93;;
30571;SDS011;17348;50.948;10.696;2023-11-21T13:56:03;2.40;;;1.20;;
30571;SDS011;17348;50.948;10.696;2023-11-21T13:59:06;1.57;;;1.00;;
30571;SDS011;17348;50.948;10.696;2023-11-21T14:02:19;4.27;;;1.13;;
30571;SDS011;17348;50.948;10.696;2023-11-21T14:05:28;3.17;;;1.30;;
30571;SDS011;17348;50.948;10.696;2023-11-21T14:08:33;5.10;;;1.40;;
30571;SDS011;17348;50.948;10.696;2023-11-21T14:11:36;6.77;;;1.80;;
30571;SDS011;17348;50.948;10.696;2023-11-21T14:14:39;4.13;;;1.83;;
30571;SDS011;17348;50.948;10.696;2023-11-21T14:17:41;5.57;;;2.47;;
30571;SDS011;17348;50.948;10.696;2023-11-21T14:20:43;3.67;;;2.13;;
30571;SDS011;17348;50.948;10.696;2023-11-21T14:23:47;3.83;;;2.30;;
30571;SDS011;17348;50.948;10.696;2023-11-21T14:26:50;6.57;;;2.97;;
30571;SDS011;17348;50.948;10.696;2023-11-21T14:29:53;13.40;;;2.90;;
30571;SDS011;17348;50.948;10.696;2023-11-21T14:32:57;8.83;;;3.20;;
30571;SDS011;17348;50.948;10.696;2023-11-21T14:36:00;6.30;;;3.17;;
30571;SDS011;17348;50.948;10.696;2023-11-21T14:39:04;7.37;;;3.83;;
30571;SDS011;17348;50.948;10.696;2023-11-21T14:42:09;12.10;;;4.80;;
30571;SDS011;17348;50.948;10.696;2023-11-21T14:45:12;13.83;;;6.03;;
30571;SDS011;17348;50.948;10.696;2023-11-21T14:48:20;14.43;;;5.60;;
30571;SDS011;17348;50.948;10.696;2023-11-21T14:51:37;13.43;;;6.40;;
30571;SDS011;17348;50.948;10.696;2023-11-21T14:55:02;14.23;;;6.63;;
30571;SDS011;17348;50.948;10.696;2023-11-21T14:58:32;14.87;;;7.30;;
30571;SDS011;17348;50.948;10.696;2023-11-21T15:01:33;16.90;;;8.00;;
30571;SDS011;17348;50.948;10.696;2023-11-21T15:04:45;21.27;;;7.83;;
30571;SDS011;17348;50.948;10.696;2023-11-21T15:07:46;23.40;;;9.03;;
30571;SDS011;17348;50.948;10.696;2023-11-21T15:10:51;21.97;;;9.63;;
30571;SDS011;17348;50.948;10.696;2023-11-21T15:13:55;19.20;;;9.10;;
30571;SDS011;17348;50.948;10.696;2023-11-21T15:16:58;16.47;;;8.40;;
30571;SDS011;17348;50.948;10.696;2023-11-21T15:20:02;21.27;;;9.00;;
30571;SDS011;17348;50.948;10.696;2023-11-21T15:23:08;17.03;;;9.27;;
30571;SDS011;17348;50.948;10.696;2023-11-21T15:26:14;19.67;;;8.43;;
30571;SDS011;17348;50.948;10.696;2023-11-21T15:29:16;19.70;;;8.43;;
30571;SDS011;17348;50.948;10.696;2023-11-21T15:32:21;16.93;;;7.73;;
30571;SDS011;17348;50.948;10.696;2023-11-21T15:35:24;24.90;;;10.00;;
30571;SDS011;17348;50.948;10.696;2023-11-21T15:38:28;18.70;;;9.63;;
30571;SDS011;17348;50.948;10.696;2023-11-21T15:41:31;15.53;;;8.63;;
30571;SDS011;17348;50.948;10.696;2023-11-21T15:44:34;19.70;;;8.60;;
30571;SDS011;17348;50.948;10.696;2023-11-21T15:47:37;25.50;;;9.03;;
30571;SDS011;17348;50.948;10.696;2023-11-21T15:50:40;20.57;;;10.27;;
30571;SDS011;17348;50.948;10.696;2023-11-21T15:53:44;17.17;;;8.13;;
30571;SDS011;17348;50.948;10.696;2023-11-21T15:56:48;20.17;;;9.60;;
30571;SDS011;17348;50.948;10.696;2023-11-21T15:59:50;19.10;;;8.97;;
30571;SDS011;17348;50.948;10.696;2023-11-21T16:02:53;17.93;;;9.87;;
30571;SDS011;17348;50.948;10.696;2023-11-21T16:05:56;21.57;;;10.27;;
30571;SDS011;17348;50.948;10.696;2023-11-21T16:08:58;23.43;;;10.40;;
30571;SDS011;17348;50.948;10.696;2023-11-21T16:12:04;16.37;;;8.87;;
30571;SDS011;17348;50.948;10.696;2023-11-21T16:15:07;17.10;;;8.97;;
30571;SDS011;17348;50.948;10.696;2023-11-21T16:18:11;19.50;;;10.30;;
30571;SDS011;17348;50.948;10.696;2023-11-21T16:21:13;18.83;;;10.30;;
30571;SDS011;17348;50.948;10.696;2023-11-21T16:24:16;19.03;;;9.67;;
30571;SDS011;17348;50.948;10.696;2023-11-21T16:27:20;15.53;;;7.83;;
30571;SDS011;17348;50.948;10.696;2023-11-21T16:30:22;18.40;;;10.17;;
30571;SDS011;17348;50.948;10.696;2023-11-21T16:33:27;19.80;;;11.00;;
30571;SDS011;17348;50.948;10.696;2023-11-21T16:36:29;22.47;;;10.87;;
30571;SDS011;17348;50.948;10.696;2023-11-21T16:39:32;18.57;;;8.60;;
30571;SDS011;17348;50.948;10.696;2023-11-21T16:42:36;18.27;;;8.40;;
30571;SDS011;17348;50.948;10.696;2023-11-21T16:45:39;13.43;;;6.97;;
30571;SDS011;17348;50.948;10.696;2023-11-21T16:48:41;16.00;;;8.00;;
30571;SDS011;17348;50.948;10.696;2023-11-21T16:51:43;11.50;;;7.00;;
30571;SDS011;17348;50.948;10.696;2023-11-21T16:54:46;13.37;;;6.80;;
30571;SDS011;17348;50.948;10.696;2023-11-21T16:57:50;12.27;;;7.63;;
30571;SDS011;17348;50.948;10.696;2023-11-21T17:00:53;13.77;;;7.03;;
30571;SDS011;17348;50.948;10.696;2023-11-21T17:03:55;13.97;;;5.87;;
30571;SDS011;17348;50.948;10.696;2023-11-21T17:06:59;11.63;;;5.93;;
30571;SDS011;17348;50.948;10.696;2023-11-21T17:10:02;18.17;;;7.60;;
30571;SDS011;17348;50.948;10.696;2023-11-21T17:13:09;13.57;;;6.83;;
30571;SDS011;17348;50.948;10.696;2023-11-21T17:16:11;13.97;;;6.10;;
30571;SDS011;17348;50.948;10.696;2023-11-21T17:19:14;10.83;;;5.20;;
30571;SDS011;17348;50.948;10.696;2023-11-21T17:22:16;11.27;;;5.07;;
30571;SDS011;17348;50.948;10.696;2023-11-21T17:25:20;10.20;;;5.33;;
30571;SDS011;17348;50.948;10.696;2023-11-21T17:28:24;10.80;;;5.53;;
30571;SDS011;17348;50.948;10.696;2023-11-21T17:31:27;6.60;;;4.03;;
30571;SDS011;17348;50.948;10.696;2023-11-21T17:34:29;10.10;;;5.03;;
30571;SDS011;17348;50.948;10.696;2023-11-21T17:37:32;12.53;;;4.10;;
30571;SDS011;17348;50.948;10.696;2023-11-21T17:40:34;10.10;;;4.17;;
30571;SDS011;17348;50.948;10.696;2023-11-21T17:43:38;6.17;;;3.40;;
30571;SDS011;17348;50.948;10.696;2023-11-21T17:46:42;10.13;;;4.20;;
30571;SDS011;17348;50.948;10.696;2023-11-21T17:49:44;9.80;;;4.13;;
30571;SDS011;17348;50.948;10.696;2023-11-21T17:52:48;11.77;;;4.90;;
30571;SDS011;17348;50.948;10.696;2023-11-21T17:55:50;6.80;;;4.40;;
30571;SDS011;17348;50.948;10.696;2023-11-21T17:58:54;7.83;;;3.90;;
30571;SDS011;17348;50.948;10.696;2023-11-21T18:01:59;6.30;;;3.70;;
30571;SDS011;17348;50.948;10.696;2023-11-21T18:05:01;8.60;;;4.40;;
30571;SDS011;17348;50.948;10.696;2023-11-21T18:08:05;12.73;;;5.13;;